Regional La Paz
EstacinAerodromoSit. GeograficaDescripcin
SLLPInternaciónal El Alto16-08S-68-10W SLLP 090200Z VRB02KT 9999 FEW015 SCT200 05/00 Q1040 A3073 629.7 HR72 AC NOSIG=
SLRYReyes14-18S-67-21W SLRY 082200Z 00000KT 9999 NSC 26/18 Q1016 A3000 HR61 RWY NML=
SLRQRurrenabaque14-25S-67-29W SLRQ 082300Z 00000KT 9999 NSC 20/19 Q1015 A3000 991.6 HR96=
SLAPApolo14-44S-68-24W SLAP 071800Z 00000KT 9999 SCT017 BKN070 21/14 Q1020 A3014 861.0 HR64 CI=
SLSBSan Borja14-51S-66-44W SLSB 082300Z 00000KT 9999 NSC 20/19 Q1016 A3003 HR91 RWY NML=
SLCNCharaña17-35S-69-25W
SLOROruro17-57S-67-04W SLOR 081700Z 23007KT 9999 FEW020 BKN200 17/03 Q1037 A3064 657.7 HR39=
SLUYUyuni20-27S-62-52W SLUY 071700Z 28006KT 9999 NSC 14/M06 Q1034 A3056 658.8 HR24 CI=
SLCCCopacabana - Tito Yupanqui16-11S-69-05W
Regional Cochabamba
EstacinAerodromoSit. GeograficaDescripcin
SLVMVillamontes21-15S-63-24W SLVM 081700Z NIL=
SLHIChimore16-58S-65-09W SLHI 081700Z NIL=
SLCBCochabamba17-25S-66-10W SLCB 090200Z 19003KT 9999 NSC 17/02 Q1025 A3027 751.5 HR35 FU NOSIG=
SLALAlcantari19-14S-65-09W SLAL 081700Z NIL=
SLPOPotosí19-32S-65-43W SLPO 081700Z NIL=
SLAGMonteagudo19-49S-63-58W SLAG 081700Z NIL=
SLTJTarija21-33S-64-42W SLTJ 081700Z 00000KT 9999 NSC 19/06 Q1020 A3014 815.4 HR45 CI=
SLYAYacuiba21-57S-63-39W SLYA 081700Z NIL=
SLBJBermejo22-46S-64-18W SLBJ 081700Z NIL=
Regional Santa Cruz
EstacinAerodromoSit. GeograficaDescripcin
SLVGValle Grande18-28S-64-05W SLVG 082100Z 36005KT 9999 BKN027 16/11 Q1025 A3027 HR71 RWY NML =
SLASAscención de Guarayos15-55S-63-09W SLAS 082200Z 00000KT 9999 NSC 24/19 Q1017 A3003 HR75 RWY NML=
SLCPConcepción16-08S-62-01W SLCP 082200Z 00000KT 9999 NSC 23/19 Q1019 A3009 HR76 RWY NML=
SLJVSan Javier16-16S-62-28W SLJV 082200Z 00000KT 9999 NSC 23/19 Q1016 A3000 HR70 RWY NML=
SLTISan Matías16-20S-58-24W SLTI 082200Z 00000KT 9999 NSC 21/19 Q1021 A3015 HR87 RWY NML=
SLSISan Ignacio de Velasco16-23S-60-57W SLSI 082300Z 00000KT 9999 NSC 23/19 Q1015 A2997 HR73 RWY NML=
SLVRInternaciónal Viru Viru17-38S-63-08W SLVR 090200Z 23002KT 9999 NSC 16/14 Q1018 A3007 HR90 NOSIG=
SLETEl Trompillo17-48S-63-10W SLET 082300Z VRB02KT 9999 NSC 21/15 Q1017 A3004 HR68 NOSIG=
SLJESan José de Chiquitos17-49S-60-44W SLJE 082200Z 00000KT 9999 NSC 23/19 Q1019 A3009 HR78 RWY CLSD PASTO CRECIDO=
SLRBRoboré18-19S-59-45W SLRB 082300Z 00000KT 9999 NSC 20/19 Q1019 A3009 HR90 RWY NML=
SLPSPuerto Suárez18-58S-57-49W SLPS 072200Z 18004KT 9999 OVC017 16/15 Q1020 A3013 HR90=
SLCACamiri20-00S-63-31W SLCA 082300Z 00000KT 9999 OVC070 17/15 Q1021 A3015 HR88 RWY NML =
Regional Beni
EstacinAerodromoSit. GeograficaDescripcin
SLTRTrinidad14-49S-64-54W SLTR 082300Z 16003KT 9999 NSC 23/19 Q1016 A3001 997.6 HR78 NOSIG=
SLCOCobija11-02S-68-47W SLCO 081900Z 14005KT 9999 SCT030 27/20 Q1015 A2998 987.6 HR65=
SLGMGuayaramerín10-53S-65-23W SLGM 082300Z 18006KT 9999 SCT080 24/19 Q1014 A2997 HR72=
SLRIRiberalta11-00S-66-04W SLRI 082300Z 18004KT 9999 SCT080 25/20 Q1015 A2998 HR74=
SLJOSan Joaquin13-03S-64-39W SLJO 082200Z 00000KT 9999 NSC 26/20 Q1015 A2998 HR70 RWY NML=
SLRASan Ramón13-15S-64-36W SLRA 082200Z 00000KT 9999 NSC 25/19 Q1015 A2998 HR73 CI RWY NML=
SLMGSan Magdalena13-15S-64-36W SLMG 082200Z 00000KT 9999 NSC 26/20 Q1014 A2997 HR71 RWY NML=
SLBUBaures13-39S-63-42W SLBU 082200Z NIL=
SLSASanta Ana de Yacuma13-45S-65-26W SLSA 082300Z 15004KT 9999 NSC 24/18 Q1016 A3002 HR73=
SLSRSanta Rosa14-04S-66-47W SLSR 082200Z 00000KT 9999 NSC 24/16 Q1019 A3011 HR59 RWY NML=
SLSMSan Ignacio de Moxos14-57S-65-38W SLSM 082200Z 00000KT 9999 NSC 24/18 Q1016 A3000 HR70 RWY NML=